Time;durP1;ratioP1;P1;durP2;ratioP2;P2;SDS_P1;SDS_P2;PMS_P1;PMS_P2;Temp;Humidity;BMP_temperature;BMP_pressure;BME280_temperature;BME280_humidity;BME280_pressure;Samples;Min_cycle;Max_cycle;Signal;HPM_P1;HPM_P2
2023/05/02 00:01:42;;;;;;;15.67;7.37;;;;;;;;;;5110581;28;20216;-74
2023/05/02 00:04:09;;;;;;;15.53;7.10;;;;;;;;;;5114176;27;20198;-75
2023/05/02 00:06:36;;;;;;;15.30;6.97;;;;;;;;;;5113769;28;20737;-74
2023/05/02 00:09:04;;;;;;;17.77;7.80;;;;;;;;;;5114133;28;20307;-75
2023/05/02 00:11:31;;;;;;;12.97;7.30;;;;;;;;;;5114062;28;20641;-74
2023/05/02 00:13:58;;;;;;;16.00;7.70;;;;;;;;;;5114176;28;20198;-75
2023/05/02 00:16:27;;;;;;;17.07;7.20;;;;;;;;;;5113877;28;20295;-74
2023/05/02 00:18:54;;;;;;;17.27;7.63;;;;;;;;;;5114105;28;20280;-75
2023/05/02 00:21:21;;;;;;;17.83;7.70;;;;;;;;;;5113477;28;20639;-74
2023/05/02 00:23:48;;;;;;;14.20;7.43;;;;;;;;;;5113831;28;20624;-74
2023/05/02 00:26:15;;;;;;;16.30;7.27;;;;;;;;;;5113788;28;20292;-75
2023/05/02 00:28:42;;;;;;;11.60;7.03;;;;;;;;;;5113907;28;20732;-74
2023/05/02 00:31:10;;;;;;;16.10;7.40;;;;;;;;;;5113651;28;20712;-74
2023/05/02 00:33:38;;;;;;;17.83;7.20;;;;;;;;;;5114093;28;20631;-75
2023/05/02 00:36:06;;;;;;;14.90;6.90;;;;;;;;;;5113142;28;20274;-73
2023/05/02 00:38:33;;;;;;;15.30;7.27;;;;;;;;;;5113494;28;20677;-75
2023/05/02 00:41:00;;;;;;;14.23;6.57;;;;;;;;;;5113807;28;20194;-75
2023/05/02 00:43:31;;;;;;;14.83;7.20;;;;;;;;;;5113354;28;20704;-74
2023/05/02 00:45:58;;;;;;;14.80;6.83;;;;;;;;;;5113226;28;20828;-74
2023/05/02 00:48:26;;;;;;;13.63;7.30;;;;;;;;;;5113903;28;20291;-73
2023/05/02 00:50:56;;;;;;;13.57;6.73;;;;;;;;;;5112725;28;20791;-74
2023/05/02 00:53:23;;;;;;;17.87;7.33;;;;;;;;;;5113002;28;20669;-74
2023/05/02 00:55:50;;;;;;;12.27;6.97;;;;;;;;;;5113426;28;20358;-75
2023/05/02 00:58:19;;;;;;;11.43;6.90;;;;;;;;;;5113316;28;20291;-74
2023/05/02 01:00:59;;;;;;;15.00;7.93;;;;;;;;;;5113554;28;20287;-74
2023/05/02 01:03:30;;;;;;;15.50;7.23;;;;;;;;;;5112921;28;20283;-75
2023/05/02 01:06:00;;;;;;;14.53;7.07;;;;;;;;;;5112559;28;20200;-75
2023/05/02 01:08:35;;;;;;;14.00;7.40;;;;;;;;;;5113452;28;20244;-74
2023/05/02 01:11:06;;;;;;;16.60;7.20;;;;;;;;;;5113442;28;20225;-75
2023/05/02 01:13:34;;;;;;;15.50;7.63;;;;;;;;;;5112683;28;20191;-74
2023/05/02 01:16:03;;;;;;;15.17;7.77;;;;;;;;;;5112394;28;20649;-74
2023/05/02 01:18:32;;;;;;;12.37;7.27;;;;;;;;;;5112235;28;20193;-74
2023/05/02 01:21:01;;;;;;;16.90;7.97;;;;;;;;;;5112818;28;20738;-75
2023/05/02 01:23:31;;;;;;;15.17;7.53;;;;;;;;;;5112718;28;20298;-74
2023/05/02 01:26:03;;;;;;;15.43;8.00;;;;;;;;;;5112641;28;20729;-74
2023/05/02 01:28:34;;;;;;;17.77;7.30;;;;;;;;;;5113265;28;20194;-75
2023/05/02 01:31:04;;;;;;;16.33;7.50;;;;;;;;;;5112483;28;20311;-75
2023/05/02 01:33:31;;;;;;;15.50;8.60;;;;;;;;;;5112202;28;20285;-75
2023/05/02 01:35:59;;;;;;;15.30;8.23;;;;;;;;;;5112516;28;20284;-76
2023/05/02 01:38:27;;;;;;;17.93;7.80;;;;;;;;;;5107706;28;20286;-75
2023/05/02 01:40:55;;;;;;;20.40;7.80;;;;;;;;;;5100868;28;20213;-75
2023/05/02 01:43:23;;;;;;;20.43;8.73;;;;;;;;;;5091882;28;20283;-74
2023/05/02 01:45:50;;;;;;;18.67;8.87;;;;;;;;;;5092166;28;20198;-74
2023/05/02 01:48:20;;;;;;;15.50;7.97;;;;;;;;;;5091764;28;20194;-75
2023/05/02 01:50:49;;;;;;;18.30;9.07;;;;;;;;;;5091455;28;20320;-74
2023/05/02 01:53:17;;;;;;;16.00;8.07;;;;;;;;;;5091535;28;20197;-74
2023/05/02 01:55:45;;;;;;;17.57;8.63;;;;;;;;;;5092315;28;20203;-73
2023/05/02 01:58:12;;;;;;;18.93;8.97;;;;;;;;;;5091632;28;20640;-75
2023/05/02 02:00:40;;;;;;;21.57;9.03;;;;;;;;;;5091617;28;20290;-74
2023/05/02 02:03:08;;;;;;;18.57;9.17;;;;;;;;;;5091906;28;20682;-75
2023/05/02 02:05:37;;;;;;;15.73;9.70;;;;;;;;;;5091302;28;20292;-74
2023/05/02 02:08:05;;;;;;;19.13;9.63;;;;;;;;;;5091780;28;20234;-75
2023/05/02 02:10:36;;;;;;;23.07;10.30;;;;;;;;;;5091473;28;20682;-75
2023/05/02 02:13:07;;;;;;;16.93;9.70;;;;;;;;;;5091885;28;20296;-75
2023/05/02 02:15:35;;;;;;;18.77;9.37;;;;;;;;;;5111744;28;20202;-74
2023/05/02 02:18:05;;;;;;;20.37;10.27;;;;;;;;;;5111284;28;20193;-74
2023/05/02 02:20:33;;;;;;;19.37;10.50;;;;;;;;;;5111649;28;20281;-74
2023/05/02 02:23:04;;;;;;;21.73;9.67;;;;;;;;;;5111682;28;20284;-75
2023/05/02 02:25:31;;;;;;;18.60;9.57;;;;;;;;;;5111034;28;20277;-75
2023/05/02 02:27:59;;;;;;;19.90;10.30;;;;;;;;;;5111113;28;20296;-75
2023/05/02 02:30:26;;;;;;;20.10;10.57;;;;;;;;;;5111316;28;20642;-74
2023/05/02 02:32:53;;;;;;;17.63;10.00;;;;;;;;;;5111458;28;20232;-75
2023/05/02 02:35:20;;;;;;;18.57;10.43;;;;;;;;;;5111156;28;20683;-74
2023/05/02 02:37:49;;;;;;;20.97;10.77;;;;;;;;;;5111355;28;20193;-74
2023/05/02 02:40:22;;;;;;;23.23;11.33;;;;;;;;;;5111711;28;20201;-75
2023/05/02 02:42:52;;;;;;;25.77;10.97;;;;;;;;;;5111189;28;20328;-73
2023/05/02 02:45:26;;;;;;;20.30;11.00;;;;;;;;;;5110959;28;20287;-74
2023/05/02 02:47:59;;;;;;;21.73;10.50;;;;;;;;;;5110935;28;20641;-74
2023/05/02 02:50:30;;;;;;;19.30;11.27;;;;;;;;;;5111597;28;20229;-73
2023/05/02 02:53:01;;;;;;;24.63;11.07;;;;;;;;;;5111190;28;20204;-74
2023/05/02 02:55:37;;;;;;;22.17;11.37;;;;;;;;;;5110932;28;20224;-74
2023/05/02 02:58:08;;;;;;;18.37;10.57;;;;;;;;;;5111336;28;20284;-75
2023/05/02 03:00:36;;;;;;;17.90;10.63;;;;;;;;;;5110401;28;20289;-75
2023/05/02 03:03:03;;;;;;;23.13;10.37;;;;;;;;;;5111421;28;20298;-75
2023/05/02 03:05:31;;;;;;;21.50;10.67;;;;;;;;;;5110580;28;20300;-74
2023/05/02 03:07:59;;;;;;;18.27;10.43;;;;;;;;;;5110697;28;20192;-75
2023/05/02 03:10:27;;;;;;;16.20;10.50;;;;;;;;;;5110917;28;20193;-74
2023/05/02 03:12:55;;;;;;;16.67;10.13;;;;;;;;;;5110709;28;20314;-75
2023/05/02 03:15:30;;;;;;;15.73;9.60;;;;;;;;;;5110186;28;20246;-75
2023/05/02 03:17:57;;;;;;;19.57;9.80;;;;;;;;;;5110796;28;20193;-74
2023/05/02 03:20:24;;;;;;;15.33;9.73;;;;;;;;;;5110792;28;20749;-74
2023/05/02 03:22:51;;;;;;;14.87;9.83;;;;;;;;;;5111256;28;20276;-75
2023/05/02 03:25:18;;;;;;;15.90;9.90;;;;;;;;;;5110940;28;20281;-75
2023/05/02 03:27:46;;;;;;;17.57;9.93;;;;;;;;;;5111112;28;20217;-75
2023/05/02 03:30:14;;;;;;;17.17;9.60;;;;;;;;;;5110443;28;20614;-74
2023/05/02 03:32:41;;;;;;;17.80;10.30;;;;;;;;;;5110340;28;20314;-74
2023/05/02 03:35:09;;;;;;;18.07;9.70;;;;;;;;;;5111230;28;20208;-75
2023/05/02 03:37:36;;;;;;;17.90;10.33;;;;;;;;;;5112446;28;20276;-74
2023/05/02 03:40:03;;;;;;;16.97;9.93;;;;;;;;;;5114973;28;20238;-75
2023/05/02 03:42:30;;;;;;;17.03;10.30;;;;;;;;;;5114476;28;20320;-74
2023/05/02 03:44:58;;;;;;;15.33;10.03;;;;;;;;;;5114954;28;20213;-74
2023/05/02 03:47:26;;;;;;;14.70;9.83;;;;;;;;;;5114708;28;20281;-74
2023/05/02 03:49:53;;;;;;;15.07;9.60;;;;;;;;;;5114652;28;20221;-75
2023/05/02 03:52:20;;;;;;;15.67;9.57;;;;;;;;;;5114145;28;20327;-74
2023/05/02 03:54:48;;;;;;;17.03;9.97;;;;;;;;;;5114417;28;20727;-74
2023/05/02 03:57:15;;;;;;;14.27;10.00;;;;;;;;;;5114363;28;20196;-75
2023/05/02 03:59:44;;;;;;;18.27;10.00;;;;;;;;;;5114064;28;20266;-74
2023/05/02 04:02:11;;;;;;;17.80;10.33;;;;;;;;;;5114271;28;20207;-75
2023/05/02 04:04:40;;;;;;;16.80;10.50;;;;;;;;;;5114292;28;20284;-74
2023/05/02 04:07:08;;;;;;;19.03;10.50;;;;;;;;;;5114280;28;20788;-75
2023/05/02 04:09:35;;;;;;;20.00;10.60;;;;;;;;;;5114288;28;20732;-74
2023/05/02 04:12:03;;;;;;;15.77;10.53;;;;;;;;;;5113817;28;20256;-74
2023/05/02 04:14:30;;;;;;;18.53;10.23;;;;;;;;;;5113913;28;20281;-74
2023/05/02 04:16:57;;;;;;;18.27;10.70;;;;;;;;;;5114125;28;20287;-74
2023/05/02 04:19:24;;;;;;;23.63;10.90;;;;;;;;;;5113998;28;20280;-74
2023/05/02 04:21:53;;;;;;;19.43;10.80;;;;;;;;;;5114102;28;20627;-74
2023/05/02 04:24:20;;;;;;;15.33;10.60;;;;;;;;;;5114010;28;20262;-74
2023/05/02 04:26:47;;;;;;;16.80;10.60;;;;;;;;;;5113682;28;20283;-74
2023/05/02 04:29:15;;;;;;;17.30;11.00;;;;;;;;;;5113919;28;20243;-75
2023/05/02 04:31:42;;;;;;;20.20;11.20;;;;;;;;;;5114265;28;20221;-74
2023/05/02 04:34:09;;;;;;;19.10;11.57;;;;;;;;;;5113285;28;20621;-74
2023/05/02 04:36:37;;;;;;;19.50;11.67;;;;;;;;;;5114066;28;20205;-74
2023/05/02 04:39:06;;;;;;;15.23;10.93;;;;;;;;;;5114100;28;20196;-75
2023/05/02 04:41:33;;;;;;;18.70;10.60;;;;;;;;;;5113216;28;20659;-75
2023/05/02 04:44:00;;;;;;;16.53;10.70;;;;;;;;;;5113099;28;20694;-75
2023/05/02 04:46:28;;;;;;;18.90;11.23;;;;;;;;;;5113776;28;20272;-71
2023/05/02 04:48:55;;;;;;;16.97;10.63;;;;;;;;;;5112591;28;20233;-75
2023/05/02 04:51:22;;;;;;;21.03;10.70;;;;;;;;;;5112989;28;20284;-75
2023/05/02 04:53:50;;;;;;;19.70;11.10;;;;;;;;;;5112939;28;20235;-74
2023/05/02 04:56:18;;;;;;;19.37;10.50;;;;;;;;;;5113227;28;20200;-75
2023/05/02 04:58:45;;;;;;;17.03;9.80;;;;;;;;;;5112970;28;20705;-74
2023/05/02 05:01:12;;;;;;;17.37;11.50;;;;;;;;;;5112975;28;20279;-75
2023/05/02 05:03:40;;;;;;;15.50;11.00;;;;;;;;;;5113397;28;20204;-75
2023/05/02 05:06:07;;;;;;;19.63;11.47;;;;;;;;;;5113352;28;20244;-75
2023/05/02 05:08:34;;;;;;;18.57;11.60;;;;;;;;;;5113402;28;20275;-76
2023/05/02 05:11:03;;;;;;;16.90;11.30;;;;;;;;;;5112024;28;20203;-75
2023/05/02 05:13:32;;;;;;;44.27;11.97;;;;;;;;;;5112947;28;20233;-75
2023/05/02 05:15:59;;;;;;;22.07;11.00;;;;;;;;;;5112906;28;20737;-75
2023/05/02 05:18:26;;;;;;;15.97;11.30;;;;;;;;;;5112709;28;20646;-75
2023/05/02 05:20:53;;;;;;;22.03;11.00;;;;;;;;;;5112711;28;20204;-75
2023/05/02 05:23:21;;;;;;;17.93;10.73;;;;;;;;;;5112604;28;20240;-74
2023/05/02 05:25:48;;;;;;;14.30;10.47;;;;;;;;;;5112525;28;20281;-75
2023/05/02 05:28:17;;;;;;;15.33;10.70;;;;;;;;;;5112390;28;20222;-73
2023/05/02 05:30:45;;;;;;;14.73;10.20;;;;;;;;;;5112619;28;20194;-74
2023/05/02 05:33:13;;;;;;;34.10;9.90;;;;;;;;;;5112968;28;20316;-75
2023/05/02 05:35:40;;;;;;;21.03;10.13;;;;;;;;;;5112786;28;20203;-75
2023/05/02 05:38:08;;;;;;;20.03;9.63;;;;;;;;;;5113347;28;20214;-75
2023/05/02 05:40:35;;;;;;;24.80;9.87;;;;;;;;;;5113029;28;20284;-76
2023/05/02 05:43:02;;;;;;;20.47;9.77;;;;;;;;;;5107476;28;20324;-76
2023/05/02 05:45:29;;;;;;;23.07;10.33;;;;;;;;;;5112557;28;20222;-74
2023/05/02 05:47:58;;;;;;;15.60;9.47;;;;;;;;;;5112043;28;20288;-75
2023/05/02 05:50:25;;;;;;;27.63;9.27;;;;;;;;;;5113132;28;20194;-76
2023/05/02 05:52:52;;;;;;;24.47;9.40;;;;;;;;;;5110772;28;20639;-75
2023/05/02 05:55:20;;;;;;;14.90;9.60;;;;;;;;;;5101207;28;20202;-76
2023/05/02 05:57:47;;;;;;;13.20;9.27;;;;;;;;;;5101994;28;20201;-75
2023/05/02 06:00:15;;;;;;;35.60;9.80;;;;;;;;;;5092384;28;20294;-75
2023/05/02 06:02:42;;;;;;;45.27;9.20;;;;;;;;;;5101391;28;20208;-74
2023/05/02 06:05:11;;;;;;;35.77;9.50;;;;;;;;;;5112711;28;20290;-76
2023/05/02 06:07:38;;;;;;;22.67;8.90;;;;;;;;;;5112361;28;20194;-75
2023/05/02 06:10:06;;;;;;;32.90;9.63;;;;;;;;;;5112118;28;20268;-75
2023/05/02 06:12:33;;;;;;;43.67;10.33;;;;;;;;;;5112931;28;20759;-76
2023/05/02 06:15:00;;;;;;;18.23;9.10;;;;;;;;;;5112783;28;20621;-75
2023/05/02 06:17:27;;;;;;;19.17;9.47;;;;;;;;;;5112774;28;20193;-75
2023/05/02 06:19:54;;;;;;;35.70;9.13;;;;;;;;;;5112680;28;20202;-75
2023/05/02 06:22:23;;;;;;;27.40;9.00;;;;;;;;;;5112788;28;20276;-75
2023/05/02 06:24:50;;;;;;;19.27;8.63;;;;;;;;;;5111954;28;20289;-75
2023/05/02 06:27:17;;;;;;;28.90;9.00;;;;;;;;;;5112193;28;20281;-76
2023/05/02 06:29:44;;;;;;;17.77;8.47;;;;;;;;;;5112213;28;20289;-75
2023/05/02 06:32:11;;;;;;;16.47;8.80;;;;;;;;;;5112697;28;20663;-76
2023/05/02 06:34:39;;;;;;;11.87;8.70;;;;;;;;;;5112041;28;20197;-75
2023/05/02 06:37:06;;;;;;;38.87;9.20;;;;;;;;;;5112221;28;20194;-76
2023/05/02 06:39:35;;;;;;;11.80;9.13;;;;;;;;;;5111898;28;20220;-76
2023/05/02 06:42:02;;;;;;;13.33;9.20;;;;;;;;;;5112198;28;20212;-75
2023/05/02 06:44:30;;;;;;;12.63;9.00;;;;;;;;;;5112077;28;20219;-75
2023/05/02 06:46:57;;;;;;;35.10;9.53;;;;;;;;;;5111839;28;20200;-75
2023/05/02 06:49:24;;;;;;;23.60;8.40;;;;;;;;;;5112134;28;20288;-75
2023/05/02 06:51:51;;;;;;;96.00;11.13;;;;;;;;;;5111437;28;20228;-75
2023/05/02 06:54:20;;;;;;;11.57;8.63;;;;;;;;;;5111979;28;20292;-75
2023/05/02 06:56:49;;;;;;;17.10;8.70;;;;;;;;;;5112000;28;20198;-75
2023/05/02 06:59:16;;;;;;;11.80;8.10;;;;;;;;;;5111812;28;20632;-75
2023/05/02 07:01:44;;;;;;;12.93;8.37;;;;;;;;;;5111920;28;20190;-75
2023/05/02 07:04:11;;;;;;;11.30;8.63;;;;;;;;;;5111762;28;20259;-75
2023/05/02 07:06:38;;;;;;;9.47;7.83;;;;;;;;;;5111451;28;20205;-76
2023/05/02 07:09:05;;;;;;;11.90;7.63;;;;;;;;;;5111758;28;20298;-76
2023/05/02 07:11:33;;;;;;;9.70;7.67;;;;;;;;;;5112327;28;20244;-75
2023/05/02 07:14:01;;;;;;;9.83;7.93;;;;;;;;;;5118490;28;20737;-74
2023/05/02 07:16:28;;;;;;;9.03;7.77;;;;;;;;;;5118130;28;20746;-75
2023/05/02 07:18:55;;;;;;;11.33;7.67;;;;;;;;;;5118568;28;20292;-76
2023/05/02 07:21:23;;;;;;;7.70;6.70;;;;;;;;;;5118455;28;20208;-75
2023/05/02 07:23:50;;;;;;;7.23;6.00;;;;;;;;;;5118682;28;20293;-75
2023/05/02 07:26:18;;;;;;;8.43;7.10;;;;;;;;;;5118101;28;20201;-75
2023/05/02 07:28:46;;;;;;;6.97;5.97;;;;;;;;;;5118422;28;20572;-76
2023/05/02 07:31:14;;;;;;;7.03;5.90;;;;;;;;;;5118558;28;20623;-76
2023/05/02 07:33:41;;;;;;;8.20;5.87;;;;;;;;;;5118450;28;20260;-75
2023/05/02 07:36:08;;;;;;;5.93;5.33;;;;;;;;;;5118021;28;20229;-75
2023/05/02 07:38:36;;;;;;;6.17;5.57;;;;;;;;;;5118897;28;20289;-74
2023/05/02 07:41:03;;;;;;;6.37;5.70;;;;;;;;;;5118352;28;20293;-75
2023/05/02 07:43:30;;;;;;;6.33;5.20;;;;;;;;;;5118173;28;20227;-76
2023/05/02 07:45:57;;;;;;;8.30;5.67;;;;;;;;;;5118541;28;20225;-74
2023/05/02 07:48:26;;;;;;;6.80;5.80;;;;;;;;;;5118526;28;20198;-75
2023/05/02 07:50:53;;;;;;;8.43;6.17;;;;;;;;;;5117699;28;20201;-75
2023/05/02 07:53:20;;;;;;;6.93;5.53;;;;;;;;;;5118129;28;20260;-75
2023/05/02 07:55:47;;;;;;;6.17;5.57;;;;;;;;;;5118158;28;20661;-74
2023/05/02 07:58:15;;;;;;;5.87;5.20;;;;;;;;;;5118371;28;20204;-75
2023/05/02 08:00:42;;;;;;;5.80;5.20;;;;;;;;;;5118487;28;20572;-76
2023/05/02 08:03:09;;;;;;;5.60;5.10;;;;;;;;;;5118333;28;20644;-75
2023/05/02 08:05:38;;;;;;;5.57;5.03;;;;;;;;;;5118044;28;20280;-75
2023/05/02 08:08:06;;;;;;;5.77;5.13;;;;;;;;;;5118259;28;20285;-76
2023/05/02 08:10:33;;;;;;;4.83;4.33;;;;;;;;;;5118007;28;20193;-75
2023/05/02 08:13:00;;;;;;;4.72;4.30;;;;;;;;;;5118346;28;20316;-76
2023/05/02 08:15:29;;;;;;;5.85;3.85;;;;;;;;;;5117695;28;20224;-75
2023/05/02 08:17:56;;;;;;;4.13;3.83;;;;;;;;;;5118047;27;20277;-75
2023/05/02 08:20:23;;;;;;;4.68;3.80;;;;;;;;;;5118154;28;20221;-74
2023/05/02 08:22:52;;;;;;;4.07;3.78;;;;;;;;;;5118025;28;20292;-75
2023/05/02 08:25:19;;;;;;;6.93;3.95;;;;;;;;;;5114612;28;20244;-75
2023/05/02 08:27:46;;;;;;;4.53;3.30;;;;;;;;;;5114629;28;20251;-75
2023/05/02 08:30:14;;;;;;;4.10;3.45;;;;;;;;;;5114908;28;20685;-76
2023/05/02 08:32:41;;;;;;;3.97;3.60;;;;;;;;;;5114443;28;20320;-76
2023/05/02 08:35:08;;;;;;;4.78;3.40;;;;;;;;;;5114425;28;20288;-76
2023/05/02 08:37:36;;;;;;;4.55;3.47;;;;;;;;;;5114778;28;20225;-75
2023/05/02 08:40:05;;;;;;;5.05;3.20;;;;;;;;;;5114436;28;20666;-76
2023/05/02 08:42:33;;;;;;;6.43;2.78;;;;;;;;;;5114776;28;20316;-76
2023/05/02 08:45:01;;;;;;;4.30;3.13;;;;;;;;;;5114341;28;20205;-76
2023/05/02 08:47:30;;;;;;;4.95;3.05;;;;;;;;;;5114103;28;20685;-75
2023/05/02 08:49:58;;;;;;;3.22;2.80;;;;;;;;;;5113913;28;20662;-75
2023/05/02 08:52:25;;;;;;;3.30;2.72;;;;;;;;;;5114214;28;20289;-75
2023/05/02 08:54:53;;;;;;;3.50;2.92;;;;;;;;;;5114366;28;20283;-76
2023/05/02 08:57:21;;;;;;;5.15;2.78;;;;;;;;;;5113933;28;20197;-75
2023/05/02 08:59:48;;;;;;;3.30;3.00;;;;;;;;;;5114059;28;20289;-76
2023/05/02 09:02:24;;;;;;;6.05;3.17;;;;;;;;;;5113866;28;20295;-75
2023/05/02 09:04:55;;;;;;;4.35;2.60;;;;;;;;;;5114020;28;20730;-77
2023/05/02 09:07:22;;;;;;;4.93;3.05;;;;;;;;;;5114447;28;20205;-76
2023/05/02 09:09:49;;;;;;;4.55;3.00;;;;;;;;;;5114039;28;20280;-74
2023/05/02 09:12:17;;;;;;;3.53;3.22;;;;;;;;;;5113881;28;20925;-75
2023/05/02 09:14:45;;;;;;;6.68;3.35;;;;;;;;;;5113485;28;20801;-75
2023/05/02 09:17:12;;;;;;;3.55;3.20;;;;;;;;;;5113646;28;20289;-75
2023/05/02 09:19:40;;;;;;;4.07;3.33;;;;;;;;;;5113878;28;20193;-75
2023/05/02 09:22:07;;;;;;;4.93;2.90;;;;;;;;;;5113750;28;20200;-75
2023/05/02 09:24:34;;;;;;;5.80;3.05;;;;;;;;;;5114127;28;20289;-75
2023/05/02 09:27:02;;;;;;;4.68;2.90;;;;;;;;;;5113608;28;20296;-75
2023/05/02 09:29:34;;;;;;;5.25;2.97;;;;;;;;;;5113594;28;20287;-75
2023/05/02 09:32:03;;;;;;;4.00;2.55;;;;;;;;;;5112750;28;20193;-75
2023/05/02 09:34:30;;;;;;;5.72;2.55;;;;;;;;;;5113389;28;20221;-76
2023/05/02 09:36:58;;;;;;;5.63;2.80;;;;;;;;;;5113457;28;20725;-75
2023/05/02 09:39:25;;;;;;;4.97;2.80;;;;;;;;;;5113672;28;20585;-75
2023/05/02 09:41:53;;;;;;;6.65;2.95;;;;;;;;;;5113415;28;20292;-75
2023/05/02 09:44:20;;;;;;;5.72;3.03;;;;;;;;;;5113477;28;20273;-76
2023/05/02 09:46:48;;;;;;;5.13;2.80;;;;;;;;;;5112757;28;20328;-76
2023/05/02 09:49:18;;;;;;;5.88;2.80;;;;;;;;;;5113017;28;20641;-75
2023/05/02 09:51:46;;;;;;;4.55;2.90;;;;;;;;;;5113152;28;20205;-75
2023/05/02 09:54:13;;;;;;;5.13;2.78;;;;;;;;;;5113303;28;20278;-75
2023/05/02 09:56:55;;;;;;;3.88;2.40;;;;;;;;;;5112735;28;20284;-75
2023/05/02 09:59:22;;;;;;;4.85;2.28;;;;;;;;;;5113335;28;20208;-75
2023/05/02 10:01:55;;;;;;;2.50;2.30;;;;;;;;;;5112445;28;20198;-75
2023/05/02 10:04:24;;;;;;;3.63;2.10;;;;;;;;;;5112714;28;20726;-75
2023/05/02 10:06:52;;;;;;;7.93;5.20;;;;;;;;;;5112636;28;20745;-75
2023/05/02 10:09:20;;;;;;;5.57;4.60;;;;;;;;;;5112993;28;20276;-75
2023/05/02 10:11:47;;;;;;;3.60;2.22;;;;;;;;;;5112869;28;20189;-74
2023/05/02 10:14:16;;;;;;;3.80;2.60;;;;;;;;;;5113096;28;20367;-75
2023/05/02 10:16:47;;;;;;;5.38;3.33;;;;;;;;;;5112182;28;20281;-75
2023/05/02 10:19:20;;;;;;;4.00;3.50;;;;;;;;;;5112658;28;20189;-75
2023/05/02 10:21:48;;;;;;;3.38;2.65;;;;;;;;;;5112789;28;20201;-75
2023/05/02 10:24:16;;;;;;;3.30;2.55;;;;;;;;;;5112605;28;20284;-75
2023/05/02 10:26:43;;;;;;;3.33;2.58;;;;;;;;;;5112595;28;20367;-75
2023/05/02 10:29:11;;;;;;;2.40;2.10;;;;;;;;;;5112133;28;20225;-75
2023/05/02 10:31:39;;;;;;;2.20;2.00;;;;;;;;;;5112672;28;20221;-75
2023/05/02 10:34:09;;;;;;;2.22;1.98;;;;;;;;;;5112411;28;20767;-75
2023/05/02 10:36:36;;;;;;;3.10;2.25;;;;;;;;;;5112683;28;20194;-75
2023/05/02 10:39:05;;;;;;;2.33;1.83;;;;;;;;;;5112541;28;20296;-76
2023/05/02 10:41:34;;;;;;;7.07;2.30;;;;;;;;;;5112029;28;20197;-75
2023/05/02 10:44:06;;;;;;;4.00;2.30;;;;;;;;;;5111731;28;20729;-75
2023/05/02 10:46:33;;;;;;;2.50;1.70;;;;;;;;;;5111686;28;20198;-76
2023/05/02 10:49:01;;;;;;;3.92;1.80;;;;;;;;;;5112008;28;20281;-75
2023/05/02 10:51:30;;;;;;;1.58;1.40;;;;;;;;;;5111910;28;20202;-75
2023/05/02 10:54:19;;;;;;;2.42;1.65;;;;;;;;;;5112065;28;20286;-75
2023/05/02 10:57:04;;;;;;;3.33;1.90;;;;;;;;;;5112055;28;20363;-75
2023/05/02 10:59:33;;;;;;;2.08;1.70;;;;;;;;;;5111799;28;20270;-75
2023/05/02 11:02:00;;;;;;;2.08;1.60;;;;;;;;;;5112064;28;20646;-76
2023/05/02 11:04:47;;;;;;;3.60;1.52;;;;;;;;;;5112151;28;20194;-75
2023/05/02 11:07:18;;;;;;;3.25;1.75;;;;;;;;;;5111798;28;20205;-74
2023/05/02 11:09:47;;;;;;;3.05;1.60;;;;;;;;;;5111743;28;20198;-74
2023/05/02 11:12:34;;;;;;;2.42;1.77;;;;;;;;;;5111542;28;20699;-75
2023/05/02 11:15:03;;;;;;;2.78;1.88;;;;;;;;;;5111125;28;20320;-75
2023/05/02 11:17:50;;;;;;;3.25;2.20;;;;;;;;;;5111711;28;20193;-76
2023/05/02 11:20:20;;;;;;;5.22;2.30;;;;;;;;;;5111606;28;20292;-76
2023/05/02 11:22:48;;;;;;;4.75;2.28;;;;;;;;;;5111558;28;20198;-75
2023/05/02 11:25:35;;;;;;;3.40;1.92;;;;;;;;;;5111723;28;20194;-75
2023/05/02 11:28:02;;;;;;;2.30;1.95;;;;;;;;;;5111411;28;20190;-75
2023/05/02 11:30:42;;;;;;;2.53;1.80;;;;;;;;;;5111889;28;20256;-75
2023/05/02 11:33:14;;;;;;;5.13;2.67;;;;;;;;;;5111837;28;20189;-75
2023/05/02 11:35:42;;;;;;;3.03;2.63;;;;;;;;;;5111552;28;20666;-75
2023/05/02 11:38:11;;;;;;;4.18;2.70;;;;;;;;;;5111698;28;20625;-75
2023/05/02 11:40:38;;;;;;;2.53;2.25;;;;;;;;;;5111919;28;20201;-75
2023/05/02 11:43:13;;;;;;;2.80;2.50;;;;;;;;;;5111153;28;20282;-75
2023/05/02 11:45:42;;;;;;;4.07;2.75;;;;;;;;;;5111213;28;20197;-75
2023/05/02 11:48:09;;;;;;;3.20;2.65;;;;;;;;;;5111962;28;20205;-76
2023/05/02 11:50:42;;;;;;;4.93;2.78;;;;;;;;;;5111252;28;20197;-76
2023/05/02 11:53:11;;;;;;;2.25;1.92;;;;;;;;;;5111416;28;20288;-75
2023/05/02 11:55:38;;;;;;;3.80;2.60;;;;;;;;;;5111589;28;20221;-75
2023/05/02 11:58:05;;;;;;;3.88;2.63;;;;;;;;;;5111468;28;20288;-75
2023/05/02 12:00:33;;;;;;;3.33;2.55;;;;;;;;;;5115504;28;20196;-75
2023/05/02 12:03:01;;;;;;;3.22;2.50;;;;;;;;;;5115337;28;20197;-76
2023/05/02 12:05:30;;;;;;;2.60;2.40;;;;;;;;;;5114967;28;20293;-76
2023/05/02 12:07:57;;;;;;;2.92;1.80;;;;;;;;;;5115071;28;20209;-75
2023/05/02 12:10:24;;;;;;;3.00;2.10;;;;;;;;;;5115028;28;20288;-75
2023/05/02 12:12:51;;;;;;;2.75;1.80;;;;;;;;;;5114544;28;20244;-75
2023/05/02 12:15:18;;;;;;;3.50;2.40;;;;;;;;;;5115041;28;20324;-75
2023/05/02 12:17:50;;;;;;;2.75;2.10;;;;;;;;;;5114754;28;20198;-75
2023/05/02 12:20:19;;;;;;;2.95;2.13;;;;;;;;;;5114762;28;20198;-76
2023/05/02 12:22:46;;;;;;;2.97;1.73;;;;;;;;;;5115401;28;20630;-74
2023/05/02 12:25:14;;;;;;;2.97;1.80;;;;;;;;;;5114485;28;20193;-75
2023/05/02 12:27:41;;;;;;;2.47;1.67;;;;;;;;;;5114780;28;20198;-75
2023/05/02 12:30:08;;;;;;;2.40;1.60;;;;;;;;;;5114682;28;20229;-75
2023/05/02 12:32:37;;;;;;;1.95;1.40;;;;;;;;;;5114565;28;20289;-75
2023/05/02 12:35:05;;;;;;;1.92;1.20;;;;;;;;;;5114804;28;20225;-75
2023/05/02 12:37:34;;;;;;;2.22;1.55;;;;;;;;;;5114584;27;20285;-75
2023/05/02 12:40:01;;;;;;;2.13;1.40;;;;;;;;;;5113997;27;20194;-75
2023/05/02 12:42:31;;;;;;;2.20;1.40;;;;;;;;;;5114415;28;20261;-76
2023/05/02 12:44:58;;;;;;;1.85;1.67;;;;;;;;;;5114479;28;20296;-75
2023/05/02 12:47:25;;;;;;;2.03;1.50;;;;;;;;;;5114170;28;20281;-75
2023/05/02 12:49:53;;;;;;;2.92;1.60;;;;;;;;;;5114556;28;20193;-75
2023/05/02 12:52:21;;;;;;;1.67;1.52;;;;;;;;;;5114437;28;20194;-76
2023/05/02 12:54:49;;;;;;;2.20;2.00;;;;;;;;;;5113745;28;20261;-75
2023/05/02 12:57:23;;;;;;;2.35;2.03;;;;;;;;;;5114356;28;20688;-75
2023/05/02 12:59:52;;;;;;;2.85;1.35;;;;;;;;;;5114010;28;20194;-75
2023/05/02 13:02:20;;;;;;;2.05;1.67;;;;;;;;;;5114593;28;20208;-75
2023/05/02 13:04:47;;;;;;;3.67;1.80;;;;;;;;;;5113856;28;20190;-75
2023/05/02 13:07:14;;;;;;;1.90;1.40;;;;;;;;;;5113893;28;20293;-76
2023/05/02 13:09:41;;;;;;;2.42;1.40;;;;;;;;;;5113099;28;20735;-76
2023/05/02 13:12:10;;;;;;;2.45;1.52;;;;;;;;;;5113568;28;20288;-75
2023/05/02 13:14:37;;;;;;;2.17;1.30;;;;;;;;;;5113423;28;20735;-75
2023/05/02 13:17:07;;;;;;;4.63;1.50;;;;;;;;;;5113679;28;20945;-75
2023/05/02 13:19:34;;;;;;;1.80;1.50;;;;;;;;;;5114033;28;20194;-75
2023/05/02 13:22:01;;;;;;;2.17;1.50;;;;;;;;;;5114053;28;20570;-75
2023/05/02 13:24:28;;;;;;;3.22;1.60;;;;;;;;;;5113226;28;20284;-75
2023/05/02 13:26:56;;;;;;;2.55;1.70;;;;;;;;;;5113933;28;20226;-75
2023/05/02 13:29:24;;;;;;;1.85;1.65;;;;;;;;;;5113429;28;20288;-75
2023/05/02 13:31:51;;;;;;;2.25;1.63;;;;;;;;;;5113526;28;20246;-76
2023/05/02 13:34:18;;;;;;;3.63;1.60;;;;;;;;;;5113683;28;20217;-75
2023/05/02 13:36:46;;;;;;;3.03;1.40;;;;;;;;;;5113622;28;20280;-75
2023/05/02 13:39:13;;;;;;;1.83;1.33;;;;;;;;;;5113042;28;20285;-75
2023/05/02 13:41:40;;;;;;;2.38;1.38;;;;;;;;;;5113247;28;20293;-75
2023/05/02 13:44:08;;;;;;;2.45;1.33;;;;;;;;;;5112993;28;20233;-76
2023/05/02 13:46:37;;;;;;;3.20;1.30;;;;;;;;;;5113360;28;20198;-75
2023/05/02 13:49:04;;;;;;;2.35;1.77;;;;;;;;;;5113237;28;20221;-75
2023/05/02 13:51:31;;;;;;;1.90;1.60;;;;;;;;;;5113522;28;20204;-76
2023/05/02 13:53:58;;;;;;;2.67;1.40;;;;;;;;;;5112676;28;20288;-76
2023/05/02 13:56:26;;;;;;;3.80;1.58;;;;;;;;;;5112876;28;20229;-75
2023/05/02 13:58:53;;;;;;;2.63;1.55;;;;;;;;;;5113180;28;20193;-75
2023/05/02 14:01:20;;;;;;;2.05;1.50;;;;;;;;;;5112816;28;20293;-75
2023/05/02 14:03:48;;;;;;;2.55;1.60;;;;;;;;;;5112739;28;20290;-75
2023/05/02 14:06:16;;;;;;;2.53;1.50;;;;;;;;;;5112881;28;20202;-74
2023/05/02 14:08:43;;;;;;;3.92;1.40;;;;;;;;;;5112700;28;20201;-75
2023/05/02 14:11:11;;;;;;;2.08;1.48;;;;;;;;;;5112774;28;20193;-76
2023/05/02 14:13:38;;;;;;;3.17;1.58;;;;;;;;;;5112847;28;20194;-75
2023/05/02 14:16:06;;;;;;;1.60;1.38;;;;;;;;;;5112481;28;20256;-76
2023/05/02 14:18:33;;;;;;;3.40;1.27;;;;;;;;;;5112769;28;20201;-76
2023/05/02 14:21:03;;;;;;;2.70;1.50;;;;;;;;;;5112543;28;20270;-75
2023/05/02 14:23:30;;;;;;;2.38;1.30;;;;;;;;;;5112220;28;20200;-75
2023/05/02 14:25:57;;;;;;;2.50;1.58;;;;;;;;;;5112845;28;20240;-74
2023/05/02 14:28:25;;;;;;;2.65;1.73;;;;;;;;;;5112647;28;20194;-75
2023/05/02 14:30:53;;;;;;;3.22;1.55;;;;;;;;;;5112411;28;20198;-75
2023/05/02 14:33:20;;;;;;;2.33;1.30;;;;;;;;;;5112545;28;20678;-74
2023/05/02 14:35:47;;;;;;;2.92;1.50;;;;;;;;;;5111879;28;20225;-74
2023/05/02 14:38:16;;;;;;;1.98;1.30;;;;;;;;;;5112388;28;20293;-75
2023/05/02 14:40:43;;;;;;;1.98;1.08;;;;;;;;;;5112314;28;20636;-74